Creighton, Missouri
Current Conditions -  °F | °C
As of 4:55 PM on Monday 20 Oct 2014 (Local Time) from KGLY Reporting Station
Haze Haze  
Wind Chill: 73°   Ceiling: Unl
Heat Index: 73°   Visibility: 5mi
Dew Point: 52°   Wind: 7mph
Humidity: 47%   Direction: 330°NNW
Pressure: 30.02"   Gusts: NA
Location:  38.49°N, 94.07°W
Report Text: KGLY 202155Z AUTO 33006KT 5SM HZ CLR 23/11 A3002 RMK AO2
Loading
Personal Weather Stations






























Interactive Weather Map
Tropical Storm Tracking
New forecast layout! Learn more

10-Day Weather Forecast

Advertisements
Track Severe Weather on mobile